Time;durP1;ratioP1;P1;durP2;ratioP2;P2;SDS_P1;SDS_P2;PMS_P1;PMS_P2;Temp;Humidity;BMP_temperature;BMP_pressure;BME280_temperature;BME280_humidity;BME280_pressure;Samples;Min_cycle;Max_cycle;Signal;HPM_P1;HPM_P2
2023/04/13 00:01:24;;;;;;;14.63;13.07;;;9.70;99.90;;;;;;5082911;28;20248;-69
2023/04/13 00:03:51;;;;;;;14.38;12.88;;;9.70;99.90;;;;;;5079170;28;20201;-73
2023/04/13 00:06:18;;;;;;;15.00;13.40;;;9.70;99.90;;;;;;5078678;28;20197;-73
2023/04/13 00:08:46;;;;;;;13.98;12.50;;;9.70;99.90;;;;;;5080322;28;20710;-71
2023/04/13 00:11:13;;;;;;;13.85;12.32;;;9.70;99.90;;;;;;5077232;28;20236;-77
2023/04/13 00:13:41;;;;;;;13.25;11.95;;;9.70;99.90;;;;;;5077821;28;20639;-71
2023/04/13 00:16:09;;;;;;;15.45;13.82;;;9.70;99.90;;;;;;5076661;28;20202;-74
2023/04/13 00:18:38;;;;;;;13.63;12.32;;;9.80;99.90;;;;;;5081734;28;20229;-74
2023/04/13 00:21:06;;;;;;;15.40;13.85;;;9.80;99.90;;;;;;5077684;28;20524;-71
2023/04/13 00:23:35;;;;;;;14.40;12.98;;;9.80;99.90;;;;;;5079621;28;20194;-76
2023/04/13 00:26:02;;;;;;;18.15;13.73;;;9.80;99.90;;;;;;5078654;28;20658;-73
2023/04/13 00:28:29;;;;;;;15.27;13.68;;;9.70;99.90;;;;;;5078169;28;20785;-75
2023/04/13 00:30:56;;;;;;;14.88;13.35;;;9.70;99.90;;;;;;5076162;28;20202;-75
2023/04/13 00:33:23;;;;;;;14.13;12.60;;;9.60;99.90;;;;;;5079578;28;20486;-75
2023/04/13 00:35:51;;;;;;;13.43;11.95;;;9.60;99.90;;;;;;5080238;28;20201;-74
2023/04/13 00:38:18;;;;;;;13.90;12.50;;;9.70;99.90;;;;;;5077529;28;20225;-72
2023/04/13 00:40:45;;;;;;;14.52;13.02;;;9.70;99.90;;;;;;5077661;28;20284;-74
2023/04/13 00:43:12;;;;;;;15.45;13.85;;;9.80;99.90;;;;;;5083165;28;20617;-74
2023/04/13 00:45:40;;;;;;;13.30;11.95;;;9.80;99.90;;;;;;5081009;28;20257;-74
2023/04/13 00:48:09;;;;;;;14.70;12.80;;;9.80;99.90;;;;;;5076686;28;20229;-76
2023/04/13 00:50:36;;;;;;;13.10;11.80;;;9.80;99.90;;;;;;5079365;28;21193;-76
2023/04/13 00:53:05;;;;;;;14.38;12.98;;;9.70;99.90;;;;;;5078765;28;20201;-76
2023/04/13 00:55:32;;;;;;;13.15;11.50;;;9.70;99.90;;;;;;5078671;28;20217;-72
2023/04/13 00:58:00;;;;;;;14.13;12.68;;;9.70;99.90;;;;;;5079554;28;20244;-73
2023/04/13 01:00:27;;;;;;;13.43;12.02;;;9.70;99.90;;;;;;5081423;28;20198;-73
2023/04/13 01:02:54;;;;;;;13.68;12.27;;;9.70;99.90;;;;;;5077293;28;20213;-73
2023/04/13 01:05:24;;;;;;;14.30;12.40;;;9.80;99.90;;;;;;5081483;28;20229;-72
2023/04/13 01:08:00;;;;;;;11.63;10.52;;;9.80;99.90;;;;;;5079972;28;20286;-76
2023/04/13 01:10:35;;;;;;;13.07;11.77;;;9.80;99.90;;;;;;5079716;28;20193;-73
2023/04/13 01:13:11;;;;;;;12.32;11.05;;;9.80;99.90;;;;;;5080140;28;20193;-74
2023/04/13 01:15:41;;;;;;;11.25;10.20;;;9.80;99.90;;;;;;5080590;28;20798;-71
2023/04/13 01:18:10;;;;;;;12.38;10.82;;;9.80;99.90;;;;;;5080090;28;20258;-75
2023/04/13 01:20:40;;;;;;;12.73;11.45;;;9.80;99.90;;;;;;5077597;28;20689;-77
2023/04/13 01:23:09;;;;;;;14.43;12.93;;;9.90;99.90;;;;;;5080479;28;20256;-72
2023/04/13 01:25:44;;;;;;;12.45;11.15;;;9.80;99.90;;;;;;5082683;28;20660;-73
2023/04/13 01:28:15;;;;;;;11.27;10.18;;;9.80;99.90;;;;;;5075929;28;20213;-71
2023/04/13 01:30:43;;;;;;;11.68;10.48;;;9.80;99.90;;;;;;5082993;28;20205;-73
2023/04/13 01:33:11;;;;;;;12.93;11.68;;;9.80;99.90;;;;;;5081621;28;20622;-78
2023/04/13 01:35:38;;;;;;;15.13;13.52;;;9.80;99.90;;;;;;5081291;28;20784;-74
2023/04/13 01:38:07;;;;;;;13.52;12.13;;;9.70;99.90;;;;;;5080959;28;20684;-72
2023/04/13 01:40:35;;;;;;;13.82;12.40;;;9.60;99.90;;;;;;5081166;28;20208;-70
2023/04/13 01:43:03;;;;;;;15.05;13.55;;;9.60;99.90;;;;;;5083207;28;21639;-76
2023/04/13 01:45:45;;;;;;;14.85;13.35;;;9.70;99.90;;;;;;5081317;28;20221;-72
2023/04/13 01:48:18;;;;;;;12.77;11.52;;;9.60;99.90;;;;;;5081059;28;20644;-72
2023/04/13 01:50:50;;;;;;;11.45;10.35;;;9.60;99.90;;;;;;5085748;28;20295;-71
2023/04/13 01:53:20;;;;;;;12.48;11.20;;;9.60;99.90;;;;;;5084017;28;20703;-74
2023/04/13 01:55:48;;;;;;;11.73;10.52;;;9.70;99.90;;;;;;5080163;28;20268;-76
2023/04/13 01:58:18;;;;;;;11.75;10.52;;;9.60;99.90;;;;;;5078612;28;20232;-71
2023/04/13 02:00:47;;;;;;;13.20;11.85;;;9.50;99.90;;;;;;5076902;28;20668;-71
2023/04/13 02:03:15;;;;;;;10.70;9.68;;;9.40;99.90;;;;;;5076745;28;20269;-72
2023/04/13 02:05:42;;;;;;;11.23;10.00;;;9.40;99.90;;;;;;5078191;28;20669;-73
2023/04/13 02:08:09;;;;;;;12.07;10.88;;;9.40;99.90;;;;;;5078250;28;20695;-71
2023/04/13 02:10:38;;;;;;;11.88;10.70;;;9.40;99.90;;;;;;5079541;28;20583;-73
2023/04/13 02:13:05;;;;;;;11.95;10.75;;;9.40;99.90;;;;;;5077433;28;20198;-73
2023/04/13 02:15:34;;;;;;;13.40;11.98;;;9.30;99.90;;;;;;5079828;28;20217;-73
2023/04/13 02:18:03;;;;;;;12.10;11.00;;;9.30;99.90;;;;;;5080023;28;20229;-72
2023/04/13 02:20:32;;;;;;;13.57;12.27;;;9.20;99.90;;;;;;5078101;28;20251;-71
2023/04/13 02:22:59;;;;;;;15.38;13.85;;;9.20;99.90;;;;;;5081172;28;20208;-74
2023/04/13 02:25:27;;;;;;;15.25;13.68;;;9.20;99.90;;;;;;5081269;28;20193;-70
2023/04/13 02:27:54;;;;;;;16.60;14.90;;;9.10;99.90;;;;;;5077956;28;20225;-72
2023/04/13 02:30:21;;;;;;;16.40;14.70;;;9.00;99.90;;;;;;5077329;28;20491;-74
2023/04/13 02:32:49;;;;;;;15.10;13.60;;;9.00;99.90;;;;;;5076012;28;20198;-74
2023/04/13 02:35:17;;;;;;;18.33;16.08;;;9.00;99.90;;;;;;5078414;28;20217;-72
2023/04/13 02:37:44;;;;;;;21.40;16.42;;;8.90;99.90;;;;;;5077761;28;20221;-71
2023/04/13 02:40:11;;;;;;;16.15;14.07;;;8.90;99.90;;;;;;5079521;28;20205;-71
2023/04/13 02:42:39;;;;;;;16.00;14.38;;;8.90;99.90;;;;;;5077806;28;20194;-72
2023/04/13 02:45:07;;;;;;;21.88;17.70;;;8.90;99.90;;;;;;5078621;28;20217;-74
2023/04/13 02:47:34;;;;;;;26.15;23.08;;;8.90;99.90;;;;;;5071849;28;20237;-75
2023/04/13 02:50:01;;;;;;;19.55;17.45;;;8.90;99.90;;;;;;5077146;28;20205;-71
2023/04/13 02:52:30;;;;;;;21.25;18.42;;;8.80;99.90;;;;;;5077204;28;20585;-71
2023/04/13 02:54:57;;;;;;;19.77;17.48;;;8.80;99.90;;;;;;5080997;28;20217;-70
2023/04/13 02:57:24;;;;;;;59.35;21.27;;;8.70;99.90;;;;;;5078223;28;20756;-75
2023/04/13 02:59:52;;;;;;;36.60;19.55;;;8.70;99.90;;;;;;5080157;28;20198;-74
2023/04/13 03:02:19;;;;;;;133.38;21.80;;;8.70;99.90;;;;;;5076033;28;20681;-72
2023/04/13 03:04:46;;;;;;;556.42;35.97;;;8.70;99.90;;;;;;5079054;28;20831;-73
2023/04/13 03:07:13;;;;;;;434.48;33.17;;;8.70;99.90;;;;;;5079388;28;20580;-72
2023/04/13 03:09:43;;;;;;;176.18;25.08;;;8.60;99.90;;;;;;5079785;28;20803;-73
2023/04/13 03:12:11;;;;;;;328.02;29.05;;;8.60;99.90;;;;;;5077611;28;20577;-74
2023/04/13 03:14:37;;;;;;;1612.05;83.25;;;8.50;99.90;;;;;;5077979;28;20226;-72
2023/04/13 03:17:06;;;;;;;1999.90;125.70;;;8.50;99.90;;;;;;5078830;28;20300;-72
2023/04/13 03:19:34;;;;;;;1942.93;100.93;;;8.40;99.90;;;;;;5078678;28;20226;-71
2023/04/13 03:22:01;;;;;;;902.10;59.28;;;8.40;99.90;;;;;;5073209;28;20206;-77
2023/04/13 03:24:28;;;;;;;745.80;50.83;;;8.30;99.90;;;;;;5077477;28;20634;-72
2023/04/13 03:26:57;;;;;;;484.23;40.47;;;8.30;99.90;;;;;;5072869;28;20225;-72
2023/04/13 03:29:24;;;;;;;305.85;32.65;;;8.30;99.90;;;;;;5070348;28;20235;-72
2023/04/13 03:31:51;;;;;;;268.35;30.48;;;8.30;99.90;;;;;;5074911;28;20230;-73
2023/04/13 03:34:18;;;;;;;321.33;32.20;;;8.30;99.90;;;;;;5073813;28;20280;-75
2023/04/13 03:36:45;;;;;;;598.28;45.03;;;8.30;99.90;;;;;;5072174;28;20725;-70
2023/04/13 03:39:12;;;;;;;459.67;39.60;;;8.20;99.90;;;;;;5074730;28;20216;-73
2023/04/13 03:41:39;;;;;;;82.32;24.20;;;8.30;99.90;;;;;;5075341;28;20288;-71
2023/04/13 03:44:08;;;;;;;89.10;22.17;;;8.20;99.90;;;;;;5080372;28;20243;-73
2023/04/13 03:46:36;;;;;;;121.00;26.13;;;8.20;99.90;;;;;;5077827;28;20683;-70
2023/04/13 03:49:04;;;;;;;204.38;26.42;;;8.20;99.90;;;;;;5074695;28;20222;-71
2023/04/13 03:51:31;;;;;;;283.10;30.63;;;8.20;99.90;;;;;;5075935;28;20676;-71
2023/04/13 03:53:58;;;;;;;135.02;27.55;;;8.20;99.90;;;;;;5076849;28;20703;-70
2023/04/13 03:56:25;;;;;;;95.40;23.35;;;8.20;99.90;;;;;;5078496;28;20301;-72
2023/04/13 03:58:52;;;;;;;72.70;22.88;;;8.20;99.90;;;;;;5075418;28;20279;-72
2023/04/13 04:01:21;;;;;;;140.25;26.98;;;8.20;99.90;;;;;;5073885;28;20660;-70
2023/04/13 04:03:48;;;;;;;26.90;19.25;;;8.10;99.90;;;;;;5080430;28;20288;-72
2023/04/13 04:06:15;;;;;;;31.30;18.50;;;8.10;99.90;;;;;;5075449;28;20281;-74
2023/04/13 04:08:44;;;;;;;26.52;18.45;;;8.10;99.90;;;;;;5077612;28;20862;-71
2023/04/13 04:11:11;;;;;;;20.95;16.90;;;8.10;99.90;;;;;;5076494;28;20206;-70
2023/04/13 04:13:37;;;;;;;20.15;17.23;;;8.10;99.90;;;;;;5075373;28;20292;-70
2023/04/13 04:16:07;;;;;;;27.60;18.13;;;8.00;99.90;;;;;;5074588;28;20349;-70
2023/04/13 04:18:35;;;;;;;24.52;17.80;;;8.00;99.90;;;;;;5076289;28;20225;-70
2023/04/13 04:21:03;;;;;;;19.40;15.75;;;8.00;99.90;;;;;;5072764;28;20618;-72
2023/04/13 04:23:33;;;;;;;18.23;16.08;;;8.00;99.90;;;;;;5076235;28;20198;-71
2023/04/13 04:26:01;;;;;;;20.70;16.38;;;8.00;99.90;;;;;;5078222;28;20266;-72
2023/04/13 04:28:29;;;;;;;16.38;13.45;;;8.00;99.90;;;;;;5076504;28;20221;-74
2023/04/13 04:31:00;;;;;;;13.93;12.52;;;8.00;99.90;;;;;;5078923;28;20503;-73
2023/04/13 04:33:27;;;;;;;12.82;11.52;;;8.00;99.90;;;;;;5078249;28;20746;-70
2023/04/13 04:35:55;;;;;;;11.20;9.98;;;8.00;99.90;;;;;;5077400;28;20286;-71
2023/04/13 04:38:23;;;;;;;12.95;11.63;;;8.00;99.90;;;;;;5079467;28;20304;-73
2023/04/13 04:40:56;;;;;;;10.43;9.48;;;8.00;99.90;;;;;;5076977;28;20668;-71
2023/04/13 04:43:24;;;;;;;14.57;10.18;;;8.10;99.90;;;;;;5080925;28;20602;-73
2023/04/13 04:45:51;;;;;;;10.52;9.43;;;8.10;99.90;;;;;;5086853;28;20289;-73
2023/04/13 04:48:18;;;;;;;22.38;9.38;;;8.10;99.90;;;;;;5084208;28;20217;-71
2023/04/13 04:50:45;;;;;;;13.65;8.32;;;8.10;99.90;;;;;;5085452;28;20267;-73
2023/04/13 04:53:14;;;;;;;8.15;7.35;;;8.10;99.90;;;;;;5085802;28;20385;-74
2023/04/13 04:55:41;;;;;;;8.05;7.25;;;8.00;99.90;;;;;;5083243;28;20222;-71
2023/04/13 04:58:08;;;;;;;6.45;5.85;;;8.00;99.90;;;;;;5091070;28;20221;-73
2023/04/13 05:00:35;;;;;;;6.63;6.03;;;7.90;99.90;;;;;;5089126;28;20197;-71
2023/04/13 05:03:02;;;;;;;5.82;5.32;;;7.80;99.90;;;;;;5085836;28;20695;-71
2023/04/13 05:05:30;;;;;;;6.05;5.55;;;7.80;99.90;;;;;;5089681;28;20201;-73
2023/04/13 05:07:57;;;;;;;5.47;4.97;;;7.80;99.90;;;;;;5092515;28;20368;-71
2023/04/13 05:10:27;;;;;;;5.82;5.35;;;7.80;99.90;;;;;;5078430;28;20204;-74
2023/04/13 05:12:54;;;;;;;5.50;5.10;;;7.90;99.90;;;;;;5081546;28;20226;-69
2023/04/13 05:15:21;;;;;;;4.82;4.43;;;7.90;99.90;;;;;;5082638;28;20243;-72
2023/04/13 05:17:49;;;;;;;4.70;4.30;;;7.90;99.90;;;;;;5084228;28;20739;-70
2023/04/13 05:20:18;;;;;;;4.85;4.45;;;8.00;99.90;;;;;;5086589;28;20233;-71
2023/04/13 05:22:45;;;;;;;4.40;4.07;;;8.00;99.90;;;;;;5081622;28;20733;-71
2023/04/13 05:25:13;;;;;;;3.65;3.40;;;8.10;99.90;;;;;;5085489;28;20221;-73
2023/04/13 05:27:41;;;;;;;3.55;3.25;;;8.00;99.90;;;;;;5084511;28;20703;-71
2023/04/13 05:30:09;;;;;;;2.83;2.63;;;7.90;99.90;;;;;;5082388;28;20202;-71
2023/04/13 05:32:36;;;;;;;3.10;2.90;;;7.90;99.90;;;;;;5081653;28;20568;-70
2023/04/13 05:35:04;;;;;;;2.47;2.38;;;7.90;99.90;;;;;;5084063;28;20718;-72
2023/04/13 05:37:31;;;;;;;3.60;3.38;;;7.90;99.90;;;;;;5083316;28;20204;-74
2023/04/13 05:39:58;;;;;;;2.90;2.65;;;7.90;99.90;;;;;;5086369;28;20221;-72
2023/04/13 05:42:25;;;;;;;2.30;2.20;;;7.90;99.90;;;;;;5085283;28;20628;-73
2023/04/13 05:44:54;;;;;;;2.50;2.30;;;7.90;99.90;;;;;;5086695;28;20206;-71
2023/04/13 05:47:22;;;;;;;2.25;2.15;;;7.90;99.90;;;;;;5085970;28;20248;-70
2023/04/13 05:49:51;;;;;;;2.40;2.20;;;7.90;99.90;;;;;;5076468;28;20590;-70
2023/04/13 05:52:18;;;;;;;2.47;2.28;;;7.90;99.90;;;;;;5077022;28;20251;-70
2023/04/13 05:54:45;;;;;;;3.25;2.70;;;7.90;99.90;;;;;;5077888;28;20201;-71
2023/04/13 05:57:12;;;;;;;2.42;2.22;;;7.90;99.90;;;;;;5079725;28;20218;-69
2023/04/13 05:59:39;;;;;;;2.97;2.78;;;8.00;99.90;;;;;;5076647;28;20332;-71
2023/04/13 06:02:07;;;;;;;2.97;2.78;;;8.10;99.90;;;;;;5073630;28;20242;-70
2023/04/13 06:04:34;;;;;;;2.70;2.50;;;8.10;99.90;;;;;;5080012;28;20202;-71
2023/04/13 06:07:02;;;;;;;2.80;2.33;;;8.10;99.90;;;;;;5082257;28;20189;-70
2023/04/13 06:09:28;;;;;;;2.95;2.75;;;8.10;99.90;;;;;;5075782;28;20225;-71
2023/04/13 06:11:56;;;;;;;2.42;2.30;;;8.20;99.90;;;;;;5079854;28;20201;-72
2023/04/13 06:14:23;;;;;;;2.30;2.20;;;8.30;99.90;;;;;;5080202;28;20210;-75
2023/04/13 06:16:51;;;;;;;2.13;2.03;;;8.40;99.90;;;;;;5071343;28;20222;-72
2023/04/13 06:19:20;;;;;;;2.33;2.13;;;8.40;99.90;;;;;;5074171;28;20386;-72
2023/04/13 06:21:47;;;;;;;2.10;2.00;;;8.40;99.90;;;;;;5070814;28;21762;-71
2023/04/13 06:24:14;;;;;;;2.20;2.08;;;8.40;99.90;;;;;;5073735;28;20225;-70
2023/04/13 06:26:41;;;;;;;2.00;1.90;;;8.40;99.90;;;;;;5071023;28;20612;-75
2023/04/13 06:29:08;;;;;;;2.17;1.95;;;8.50;99.90;;;;;;5075924;28;20304;-71
2023/04/13 06:31:35;;;;;;;2.00;1.90;;;8.60;99.90;;;;;;5075909;28;20266;-72
2023/04/13 06:34:02;;;;;;;1.90;1.80;;;8.60;99.90;;;;;;5077594;28;20241;-71
2023/04/13 06:36:31;;;;;;;2.05;1.95;;;8.60;99.90;;;;;;5075540;28;20300;-71
2023/04/13 06:38:58;;;;;;;2.00;1.90;;;8.60;99.90;;;;;;5070758;28;20221;-70
2023/04/13 06:41:26;;;;;;;2.13;2.03;;;8.60;99.90;;;;;;5072675;28;20524;-70
2023/04/13 06:43:53;;;;;;;2.08;1.98;;;8.80;99.90;;;;;;5072411;28;20205;-72
2023/04/13 06:46:20;;;;;;;2.05;1.95;;;8.80;99.90;;;;;;5077454;28;20663;-74
2023/04/13 06:48:46;;;;;;;2.10;2.00;;;8.90;99.90;;;;;;5073219;28;20298;-70
2023/04/13 06:51:13;;;;;;;2.50;2.40;;;9.00;99.90;;;;;;5069613;28;20736;-71
2023/04/13 06:53:42;;;;;;;2.00;1.90;;;9.10;99.90;;;;;;5075251;28;20336;-70
2023/04/13 06:56:09;;;;;;;1.60;1.50;;;9.20;99.90;;;;;;5072960;28;20277;-75
2023/04/13 06:58:36;;;;;;;2.00;1.90;;;9.40;99.90;;;;;;5074176;28;20245;-69
2023/04/13 07:01:03;;;;;;;2.13;2.03;;;9.40;99.90;;;;;;5077307;28;20615;-71
2023/04/13 07:03:30;;;;;;;1.85;1.75;;;9.30;99.90;;;;;;5071809;28;20221;-73
2023/04/13 07:05:57;;;;;;;2.00;1.90;;;9.20;99.90;;;;;;5077707;28;20218;-72
2023/04/13 07:08:24;;;;;;;1.90;1.80;;;9.20;99.90;;;;;;5077376;28;20669;-71
2023/04/13 07:10:56;;;;;;;2.20;2.10;;;9.20;99.90;;;;;;5072710;28;20446;-70
2023/04/13 07:13:24;;;;;;;1.77;1.67;;;9.40;99.90;;;;;;5078222;28;20220;-71
2023/04/13 07:15:51;;;;;;;2.10;2.00;;;9.50;99.90;;;;;;5071830;28;20253;-72
2023/04/13 07:18:18;;;;;;;2.03;1.92;;;9.70;99.90;;;;;;5075555;28;20718;-69
2023/04/13 07:20:46;;;;;;;2.40;2.30;;;9.80;99.90;;;;;;5077358;28;20293;-70
2023/04/13 07:23:13;;;;;;;2.28;2.17;;;9.70;99.90;;;;;;5073975;28;20273;-73
2023/04/13 07:25:40;;;;;;;2.58;2.47;;;9.70;99.90;;;;;;5074264;28;20225;-72
2023/04/13 07:28:08;;;;;;;2.30;2.20;;;9.80;99.90;;;;;;5071205;28;20218;-71
2023/04/13 07:30:35;;;;;;;2.00;1.90;;;10.10;99.90;;;;;;5073038;28;20217;-72
2023/04/13 07:33:02;;;;;;;2.58;2.47;;;10.40;99.90;;;;;;5079167;28;20205;-70
2023/04/13 07:35:29;;;;;;;2.63;2.53;;;10.70;99.90;;;;;;5075200;28;20309;-73
2023/04/13 07:37:56;;;;;;;1.80;1.70;;;11.00;99.90;;;;;;5076684;28;20283;-70
2023/04/13 07:40:23;;;;;;;2.20;2.10;;;11.20;99.90;;;;;;5074980;28;20639;-72
2023/04/13 07:42:50;;;;;;;1.80;1.70;;;11.30;99.90;;;;;;5072459;28;20554;-72
2023/04/13 07:45:20;;;;;;;1.90;1.80;;;11.40;99.90;;;;;;5075818;28;20206;-71
2023/04/13 07:47:47;;;;;;;2.08;1.85;;;11.50;99.90;;;;;;5071862;28;20218;-70
2023/04/13 07:50:14;;;;;;;2.00;1.90;;;11.50;99.90;;;;;;5077870;28;20271;-71
2023/04/13 07:52:41;;;;;;;2.30;2.20;;;11.50;99.90;;;;;;5074527;28;20462;-72
2023/04/13 07:55:09;;;;;;;1.92;1.83;;;11.60;99.90;;;;;;5076330;28;20282;-71
2023/04/13 07:57:36;;;;;;;2.00;1.90;;;11.60;99.90;;;;;;5077737;28;20217;-72
2023/04/13 08:00:03;;;;;;;2.40;2.30;;;11.30;99.90;;;;;;5077604;28;20201;-71
2023/04/13 08:02:33;;;;;;;2.28;2.17;;;11.00;99.90;;;;;;5077744;28;20683;-72
2023/04/13 08:05:00;;;;;;;2.28;2.10;;;10.70;99.90;;;;;;5077060;28;20280;-71
2023/04/13 08:07:28;;;;;;;2.65;2.45;;;10.60;99.90;;;;;;5073514;28;20473;-72
2023/04/13 08:09:55;;;;;;;2.33;2.13;;;10.50;99.90;;;;;;5076003;28;20206;-71
2023/04/13 08:12:22;;;;;;;2.25;2.10;;;10.50;99.90;;;;;;5075307;28;20286;-70
2023/04/13 08:14:49;;;;;;;3.25;2.10;;;10.40;99.90;;;;;;5075646;28;20233;-72
2023/04/13 08:17:16;;;;;;;2.15;2.05;;;10.30;99.90;;;;;;5073802;28;20236;-72
2023/04/13 08:19:45;;;;;;;1.83;1.73;;;10.20;99.90;;;;;;5074274;28;20312;-74
2023/04/13 08:22:12;;;;;;;2.60;2.00;;;10.00;99.90;;;;;;5074231;28;20208;-71
2023/04/13 08:24:39;;;;;;;2.40;2.20;;;9.90;99.90;;;;;;5073105;28;20237;-72
2023/04/13 08:27:06;;;;;;;2.25;2.10;;;9.80;99.90;;;;;;5076484;28;20293;-72
2023/04/13 08:29:33;;;;;;;2.20;2.10;;;9.60;99.90;;;;;;5071088;28;20225;-72
2023/04/13 08:32:00;;;;;;;2.15;2.05;;;9.50;99.90;;;;;;5071414;28;20300;-73
2023/04/13 08:34:27;;;;;;;2.17;2.08;;;9.40;99.90;;;;;;5071816;28;20198;-73
2023/04/13 08:36:57;;;;;;;2.20;2.10;;;9.30;99.90;;;;;;5071647;28;20298;-70
2023/04/13 08:39:24;;;;;;;2.50;2.40;;;9.30;99.90;;;;;;5072604;28;20214;-70
2023/04/13 08:41:51;;;;;;;2.25;2.15;;;9.20;99.90;;;;;;5069556;28;20205;-76
2023/04/13 08:44:18;;;;;;;2.03;1.92;;;9.20;99.90;;;;;;5076144;28;20752;-70
2023/04/13 08:46:46;;;;;;;2.20;2.10;;;9.20;99.90;;;;;;5076473;28;20281;-71
2023/04/13 08:49:13;;;;;;;3.72;2.40;;;9.30;99.90;;;;;;5071467;28;20306;-70
2023/04/13 08:51:42;;;;;;;2.40;2.20;;;9.30;99.90;;;;;;5075289;28;20228;-71
2023/04/13 08:54:13;;;;;;;2.30;2.20;;;9.30;99.90;;;;;;5074948;28;20247;-70
2023/04/13 08:56:44;;;;;;;2.00;1.90;;;9.40;99.90;;;;;;5077127;28;20526;-70
2023/04/13 08:59:14;;;;;;;2.20;2.10;;;9.40;99.90;;;;;;5075628;28;20247;-73
2023/04/13 09:01:43;;;;;;;2.00;1.90;;;9.40;99.90;;;;;;5075464;28;20202;-72
2023/04/13 09:04:12;;;;;;;1.85;1.75;;;9.40;99.90;;;;;;5077278;28;20261;-69
2023/04/13 09:06:41;;;;;;;2.30;2.10;;;9.50;99.90;;;;;;5078044;28;20254;-72
2023/04/13 09:09:13;;;;;;;1.92;1.83;;;9.60;99.90;;;;;;5075772;28;20247;-72
2023/04/13 09:11:41;;;;;;;2.28;2.17;;;9.60;99.90;;;;;;5076413;28;20407;-70
2023/04/13 09:14:08;;;;;;;2.13;1.98;;;9.50;99.90;;;;;;5078596;28;20206;-70
2023/04/13 09:16:40;;;;;;;2.33;2.22;;;9.40;99.90;;;;;;5074765;28;20214;-72
2023/04/13 09:19:08;;;;;;;2.55;2.33;;;9.30;99.90;;;;;;5074932;28;20308;-69
2023/04/13 09:21:39;;;;;;;1.98;1.88;;;9.30;99.90;;;;;;5070767;28;20201;-70
2023/04/13 09:24:08;;;;;;;2.08;1.98;;;9.30;99.90;;;;;;5071623;28;20288;-71
2023/04/13 09:26:44;;;;;;;2.10;2.00;;;9.30;99.90;;;;;;5072360;28;20202;-69
2023/04/13 09:29:15;;;;;;;2.03;1.92;;;9.40;99.90;;;;;;5076990;28;20281;-73
2023/04/13 09:31:42;;;;;;;2.65;2.50;;;9.40;99.90;;;;;;5071596;28;20275;-71
2023/04/13 09:34:09;;;;;;;2.22;2.05;;;9.40;99.90;;;;;;5067502;28;20201;-71
2023/04/13 09:36:37;;;;;;;3.33;2.25;;;9.20;99.90;;;;;;5067841;28;20762;-72
2023/04/13 09:39:05;;;;;;;2.28;2.17;;;9.10;99.90;;;;;;5066418;28;20217;-69
2023/04/13 09:41:33;;;;;;;2.38;2.25;;;9.00;99.90;;;;;;5068795;28;20583;-70
2023/04/13 09:44:03;;;;;;;2.45;2.33;;;9.00;99.90;;;;;;5063775;28;20841;-72
2023/04/13 09:46:30;;;;;;;2.70;2.50;;;9.00;99.90;;;;;;5064085;28;20225;-72
2023/04/13 09:49:06;;;;;;;2.60;2.50;;;9.00;99.90;;;;;;5065276;28;20253;-72
2023/04/13 09:51:37;;;;;;;1.75;1.65;;;9.00;99.90;;;;;;5073782;28;20290;-74
2023/04/13 09:54:05;;;;;;;2.10;2.00;;;9.10;99.90;;;;;;5070240;28;20289;-70
2023/04/13 09:56:43;;;;;;;2.22;2.05;;;9.20;99.90;;;;;;5065767;28;20212;-71
2023/04/13 09:59:12;;;;;;;2.28;2.17;;;9.20;99.90;;;;;;5067044;28;20420;-72
2023/04/13 10:01:40;;;;;;;2.45;2.35;;;9.20;99.90;;;;;;5067239;28;20700;-71
2023/04/13 10:04:08;;;;;;;2.33;2.22;;;9.20;99.90;;;;;;5067723;28;20198;-75
2023/04/13 10:06:39;;;;;;;2.22;2.13;;;9.00;99.90;;;;;;5068664;28;20285;-75
2023/04/13 10:09:06;;;;;;;2.20;2.10;;;8.90;99.90;;;;;;5076843;28;20217;-70
2023/04/13 10:11:37;;;;;;;1.90;1.80;;;8.70;99.90;;;;;;5068508;28;20220;-69
2023/04/13 10:14:10;;;;;;;1.77;1.67;;;8.60;99.90;;;;;;5070112;28;20220;-70
2023/04/13 10:16:52;;;;;;;2.00;1.90;;;8.50;99.90;;;;;;5072619;28;20294;-70
2023/04/13 10:19:23;;;;;;;2.05;1.95;;;8.40;99.90;;;;;;5070180;28;20217;-69
2023/04/13 10:21:52;;;;;;;2.05;1.95;;;8.20;99.90;;;;;;5068430;28;20293;-67
2023/04/13 10:24:22;;;;;;;1.85;1.75;;;8.00;99.90;;;;;;5066476;28;20213;-68
2023/04/13 10:26:53;;;;;;;2.17;2.08;;;7.80;99.90;;;;;;5069049;28;20200;-68
2023/04/13 10:29:27;;;;;;;2.55;2.45;;;7.60;99.90;;;;;;5072688;28;20220;-68
2023/04/13 10:32:01;;;;;;;1.75;1.75;;;7.50;99.90;;;;;;5070563;28;20197;-72
2023/04/13 10:34:29;;;;;;;1.95;1.85;;;7.40;99.90;;;;;;5069258;28;20201;-72
2023/04/13 10:37:02;;;;;;;2.50;2.40;;;7.30;99.90;;;;;;5065493;28;20806;-69
2023/04/13 10:39:31;;;;;;;2.05;1.95;;;7.30;99.90;;;;;;5069133;28;20230;-69
2023/04/13 10:42:02;;;;;;;2.10;1.90;;;7.30;99.90;;;;;;5070723;28;20288;-70
2023/04/13 10:44:40;;;;;;;2.00;1.90;;;7.30;99.90;;;;;;5071425;28;20201;-69
2023/04/13 10:47:09;;;;;;;2.22;2.13;;;7.30;99.90;;;;;;5066300;28;22526;-69
2023/04/13 10:49:37;;;;;;;2.08;1.98;;;7.30;99.90;;;;;;5069111;28;20596;-69
2023/04/13 10:52:04;;;;;;;3.25;2.95;;;7.40;99.90;;;;;;5067850;28;20861;-67
2023/04/13 10:54:32;;;;;;;2.30;2.20;;;7.40;99.90;;;;;;5071339;28;20225;-67
2023/04/13 10:57:01;;;;;;;2.65;2.42;;;7.40;99.90;;;;;;5072355;28;20984;-70
2023/04/13 10:59:40;;;;;;;3.28;3.08;;;7.30;99.90;;;;;;5071644;28;20232;-67
2023/04/13 11:02:10;;;;;;;2.83;2.63;;;7.20;99.90;;;;;;5069968;28;20305;-67
2023/04/13 11:04:39;;;;;;;2.75;2.65;;;7.20;99.90;;;;;;5071113;28;20205;-67
2023/04/13 11:07:06;;;;;;;1.80;1.70;;;7.20;99.90;;;;;;5073091;28;20194;-67
2023/04/13 11:09:33;;;;;;;2.75;2.55;;;7.10;99.90;;;;;;5072233;28;20226;-67
2023/04/13 11:12:00;;;;;;;3.17;2.97;;;6.90;99.90;;;;;;5071865;28;20288;-67
2023/04/13 11:14:27;;;;;;;3.35;3.08;;;6.90;99.90;;;;;;5072389;28;20237;-67
2023/04/13 11:16:55;;;;;;;2.67;2.47;;;6.80;99.90;;;;;;5073068;28;20646;-67
2023/04/13 11:19:24;;;;;;;2.70;2.50;;;6.70;99.90;;;;;;5072356;28;20428;-67
2023/04/13 11:21:56;;;;;;;3.47;3.17;;;6.70;99.90;;;;;;5072112;28;20221;-67
2023/04/13 11:24:25;;;;;;;3.13;2.92;;;6.60;99.90;;;;;;5073714;28;20206;-67
2023/04/13 11:26:53;;;;;;;2.90;2.80;;;6.60;99.90;;;;;;5073140;28;20224;-67
2023/04/13 11:29:21;;;;;;;2.95;2.85;;;6.60;99.90;;;;;;5075049;28;20304;-67
2023/04/13 11:31:48;;;;;;;2.45;2.35;;;6.50;99.90;;;;;;5075719;28;20208;-68
2023/04/13 11:34:28;;;;;;;2.83;2.65;;;6.50;99.90;;;;;;5073371;28;20278;-66
2023/04/13 11:37:00;;;;;;;2.70;2.50;;;6.40;99.90;;;;;;5070594;28;20193;-68
2023/04/13 11:39:28;;;;;;;2.50;2.40;;;6.40;99.90;;;;;;5070852;28;20236;-67
2023/04/13 11:41:56;;;;;;;2.40;2.30;;;6.40;99.90;;;;;;5072502;28;20206;-67
2023/04/13 11:44:23;;;;;;;2.35;2.25;;;6.40;99.90;;;;;;5072614;28;20377;-67
2023/04/13 11:46:53;;;;;;;2.40;2.30;;;6.30;99.90;;;;;;5078125;28;20716;-67
2023/04/13 11:49:20;;;;;;;2.67;2.58;;;6.30;99.90;;;;;;5076874;28;20234;-68
2023/04/13 11:51:48;;;;;;;2.35;2.20;;;6.20;99.90;;;;;;5074449;28;20259;-69
2023/04/13 11:54:17;;;;;;;2.50;2.40;;;6.20;99.90;;;;;;5071075;28;20289;-67
2023/04/13 11:56:45;;;;;;;2.72;2.63;;;6.20;99.90;;;;;;5072571;28;20739;-67
2023/04/13 11:59:12;;;;;;;2.60;2.40;;;6.30;99.90;;;;;;5074786;28;20222;-67
2023/04/13 12:01:39;;;;;;;2.30;2.20;;;6.30;99.90;;;;;;5072958;28;20241;-67
2023/04/13 12:04:07;;;;;;;3.20;2.92;;;6.40;99.90;;;;;;5072150;28;22816;-67
2023/04/13 12:06:34;;;;;;;2.60;2.50;;;6.50;99.90;;;;;;5073206;28;20262;-67
2023/04/13 12:09:04;;;;;;;3.10;2.90;;;6.40;99.90;;;;;;5072066;28;20495;-67
2023/04/13 12:11:37;;;;;;;2.85;2.50;;;6.30;99.90;;;;;;5074834;28;20202;-66
2023/04/13 12:14:04;;;;;;;2.70;2.50;;;6.20;99.90;;;;;;5073418;28;20205;-68
2023/04/13 12:16:33;;;;;;;1.95;1.70;;;6.10;99.90;;;;;;5073481;28;20755;-67
2023/04/13 12:19:10;;;;;;;2.25;2.15;;;6.00;99.90;;;;;;5070905;28;20736;-67
2023/04/13 12:21:37;;;;;;;2.00;1.90;;;5.90;99.90;;;;;;5072952;28;20548;-66
2023/04/13 12:24:07;;;;;;;2.20;2.10;;;5.90;99.90;;;;;;5075656;28;20198;-66
2023/04/13 12:26:36;;;;;;;1.80;1.80;;;5.80;99.90;;;;;;5076042;28;20740;-66
2023/04/13 12:29:04;;;;;;;2.05;1.95;;;5.70;99.90;;;;;;5072769;28;20271;-66
2023/04/13 12:31:35;;;;;;;2.40;2.30;;;5.70;99.90;;;;;;5069733;28;20260;-67
2023/04/13 12:34:02;;;;;;;2.17;2.08;;;5.50;99.90;;;;;;5073531;28;20233;-67
2023/04/13 12:36:30;;;;;;;2.17;2.08;;;5.50;99.90;;;;;;5072451;28;20222;-65
2023/04/13 12:38:58;;;;;;;2.38;2.20;;;5.40;99.90;;;;;;5070939;28;20232;-66
2023/04/13 12:41:26;;;;;;;1.77;1.67;;;5.30;99.90;;;;;;5072440;28;20207;-67
2023/04/13 12:43:53;;;;;;;2.30;2.20;;;5.30;99.90;;;;;;5072119;28;20254;-66
2023/04/13 12:46:20;;;;;;;2.47;2.38;;;5.20;99.90;;;;;;5071324;28;20810;-67
2023/04/13 12:48:47;;;;;;;2.80;2.60;;;5.10;99.90;;;;;;5073966;28;20603;-66
2023/04/13 12:51:14;;;;;;;2.40;2.30;;;5.10;99.90;;;;;;5072209;28;20193;-66
2023/04/13 12:53:41;;;;;;;2.65;2.47;;;5.00;99.90;;;;;;5070781;28;20284;-66